sensor_id;sensor_type;location;lat;lon;timestamp;P1;durP1;ratioP1;P2;durP2;ratioP2
55710;SDS011;41612;51.994;5.880;2023-02-13T00:00:37;22.70;;;13.85;;
55710;SDS011;41612;51.994;5.880;2023-02-13T00:03:03;21.92;;;12.65;;
55710;SDS011;41612;51.994;5.880;2023-02-13T00:05:29;22.70;;;13.25;;
55710;SDS011;41612;51.994;5.880;2023-02-13T00:07:55;19.80;;;12.75;;
55710;SDS011;41612;51.994;5.880;2023-02-13T00:10:20;25.10;;;13.13;;
55710;SDS011;41612;51.994;5.880;2023-02-13T00:12:46;20.60;;;11.98;;
55710;SDS011;41612;51.994;5.880;2023-02-13T00:15:12;25.02;;;14.30;;
55710;SDS011;41612;51.994;5.880;2023-02-13T00:17:38;21.38;;;13.25;;
55710;SDS011;41612;51.994;5.880;2023-02-13T00:20:04;21.05;;;11.65;;
55710;SDS011;41612;51.994;5.880;2023-02-13T00:22:33;22.63;;;13.82;;
55710;SDS011;41612;51.994;5.880;2023-02-13T00:25:00;23.58;;;14.02;;
55710;SDS011;41612;51.994;5.880;2023-02-13T00:27:28;24.50;;;14.02;;
55710;SDS011;41612;51.994;5.880;2023-02-13T00:29:56;25.13;;;14.82;;
55710;SDS011;41612;51.994;5.880;2023-02-13T00:32:32;20.63;;;13.38;;
55710;SDS011;41612;51.994;5.880;2023-02-13T00:34:58;25.70;;;14.10;;
55710;SDS011;41612;51.994;5.880;2023-02-13T00:37:24;20.20;;;12.65;;
55710;SDS011;41612;51.994;5.880;2023-02-13T00:39:50;29.23;;;16.60;;
55710;SDS011;41612;51.994;5.880;2023-02-13T00:42:17;27.58;;;15.60;;
55710;SDS011;41612;51.994;5.880;2023-02-13T00:44:45;23.77;;;13.98;;
55710;SDS011;41612;51.994;5.880;2023-02-13T00:47:11;21.52;;;12.10;;
55710;SDS011;41612;51.994;5.880;2023-02-13T00:49:41;23.83;;;12.82;;
55710;SDS011;41612;51.994;5.880;2023-02-13T00:52:09;22.13;;;13.63;;
55710;SDS011;41612;51.994;5.880;2023-02-13T00:54:35;24.40;;;13.27;;
55710;SDS011;41612;51.994;5.880;2023-02-13T00:57:04;28.50;;;15.95;;
55710;SDS011;41612;51.994;5.880;2023-02-13T00:59:33;25.90;;;15.43;;
55710;SDS011;41612;51.994;5.880;2023-02-13T01:01:59;20.73;;;12.68;;
55710;SDS011;41612;51.994;5.880;2023-02-13T01:04:30;22.20;;;12.45;;
55710;SDS011;41612;51.994;5.880;2023-02-13T01:06:56;21.98;;;13.32;;
55710;SDS011;41612;51.994;5.880;2023-02-13T01:09:22;29.48;;;16.35;;
55710;SDS011;41612;51.994;5.880;2023-02-13T01:11:48;24.05;;;13.23;;
55710;SDS011;41612;51.994;5.880;2023-02-13T01:14:14;21.88;;;12.27;;
55710;SDS011;41612;51.994;5.880;2023-02-13T01:16:40;29.60;;;15.40;;
55710;SDS011;41612;51.994;5.880;2023-02-13T01:19:05;22.60;;;14.48;;
55710;SDS011;41612;51.994;5.880;2023-02-13T01:21:35;23.90;;;13.05;;
55710;SDS011;41612;51.994;5.880;2023-02-13T01:24:04;23.10;;;13.52;;
55710;SDS011;41612;51.994;5.880;2023-02-13T01:26:34;22.35;;;13.50;;
55710;SDS011;41612;51.994;5.880;2023-02-13T01:29:00;30.98;;;16.98;;
55710;SDS011;41612;51.994;5.880;2023-02-13T01:31:26;22.35;;;13.45;;
55710;SDS011;41612;51.994;5.880;2023-02-13T01:33:54;21.02;;;12.45;;
55710;SDS011;41612;51.994;5.880;2023-02-13T01:36:21;21.85;;;12.55;;
55710;SDS011;41612;51.994;5.880;2023-02-13T01:38:51;33.15;;;16.65;;
55710;SDS011;41612;51.994;5.880;2023-02-13T01:41:18;22.00;;;13.07;;
55710;SDS011;41612;51.994;5.880;2023-02-13T01:43:46;21.25;;;12.43;;
55710;SDS011;41612;51.994;5.880;2023-02-13T01:46:16;22.58;;;12.45;;
55710;SDS011;41612;51.994;5.880;2023-02-13T01:48:47;23.35;;;12.68;;
55710;SDS011;41612;51.994;5.880;2023-02-13T01:51:17;27.00;;;13.85;;
55710;SDS011;41612;51.994;5.880;2023-02-13T01:53:49;24.73;;;13.82;;
55710;SDS011;41612;51.994;5.880;2023-02-13T01:58:52;19.80;;;12.57;;
55710;SDS011;41612;51.994;5.880;2023-02-13T02:01:24;20.77;;;12.18;;
55710;SDS011;41612;51.994;5.880;2023-02-13T02:03:59;20.35;;;12.30;;
55710;SDS011;41612;51.994;5.880;2023-02-13T02:06:38;20.95;;;12.32;;
55710;SDS011;41612;51.994;5.880;2023-02-13T02:09:19;20.77;;;12.30;;
55710;SDS011;41612;51.994;5.880;2023-02-13T02:11:53;23.33;;;13.23;;
55710;SDS011;41612;51.994;5.880;2023-02-13T02:14:25;21.45;;;12.52;;
55710;SDS011;41612;51.994;5.880;2023-02-13T02:16:53;19.55;;;12.13;;
55710;SDS011;41612;51.994;5.880;2023-02-13T02:19:42;21.88;;;12.82;;
55710;SDS011;41612;51.994;5.880;2023-02-13T02:47:22;18.75;;;11.73;;
55710;SDS011;41612;51.994;5.880;2023-02-13T02:55:59;31.98;;;18.52;;
55710;SDS011;41612;51.994;5.880;2023-02-13T02:59:05;30.33;;;18.05;;
55710;SDS011;41612;51.994;5.880;2023-02-13T03:01:57;22.98;;;13.23;;
55710;SDS011;41612;51.994;5.880;2023-02-13T03:04:45;24.77;;;13.63;;
55710;SDS011;41612;51.994;5.880;2023-02-13T03:07:33;20.65;;;11.85;;
55710;SDS011;41612;51.994;5.880;2023-02-13T03:10:00;18.00;;;10.75;;
55710;SDS011;41612;51.994;5.880;2023-02-13T03:12:56;21.42;;;11.50;;
55710;SDS011;41612;51.994;5.880;2023-02-13T03:15:50;21.90;;;12.82;;
55710;SDS011;41612;51.994;5.880;2023-02-13T03:18:40;33.03;;;18.55;;
55710;SDS011;41612;51.994;5.880;2023-02-13T03:24:32;27.98;;;14.88;;
55710;SDS011;41612;51.994;5.880;2023-02-13T03:27:29;27.15;;;14.02;;
55710;SDS011;41612;51.994;5.880;2023-02-13T03:30:35;29.17;;;16.50;;
55710;SDS011;41612;51.994;5.880;2023-02-13T03:39:28;37.60;;;21.23;;
55710;SDS011;41612;51.994;5.880;2023-02-13T03:42:10;31.30;;;17.92;;
55710;SDS011;41612;51.994;5.880;2023-02-13T03:48:00;30.85;;;17.45;;
55710;SDS011;41612;51.994;5.880;2023-02-13T03:50:35;38.10;;;20.98;;
55710;SDS011;41612;51.994;5.880;2023-02-13T03:53:05;34.40;;;19.35;;
55710;SDS011;41612;51.994;5.880;2023-02-13T03:55:45;19.92;;;11.88;;
55710;SDS011;41612;51.994;5.880;2023-02-13T03:58:33;39.07;;;16.97;;
55710;SDS011;41612;51.994;5.880;2023-02-13T04:01:21;42.60;;;23.02;;
55710;SDS011;41612;51.994;5.880;2023-02-13T04:04:07;39.53;;;21.33;;
55710;SDS011;41612;51.994;5.880;2023-02-13T04:06:54;37.05;;;18.95;;
55710;SDS011;41612;51.994;5.880;2023-02-13T04:09:24;36.55;;;20.65;;
55710;SDS011;41612;51.994;5.880;2023-02-13T04:11:54;33.50;;;19.33;;
55710;SDS011;41612;51.994;5.880;2023-02-13T04:14:35;33.67;;;19.83;;
55710;SDS011;41612;51.994;5.880;2023-02-13T04:17:12;35.50;;;19.73;;
55710;SDS011;41612;51.994;5.880;2023-02-13T04:19:46;40.15;;;21.35;;
55710;SDS011;41612;51.994;5.880;2023-02-13T04:22:12;37.20;;;21.75;;
55710;SDS011;41612;51.994;5.880;2023-02-13T04:24:40;45.60;;;24.55;;
55710;SDS011;41612;51.994;5.880;2023-02-13T04:27:11;42.85;;;23.00;;
55710;SDS011;41612;51.994;5.880;2023-02-13T04:29:41;38.72;;;21.52;;
55710;SDS011;41612;51.994;5.880;2023-02-13T04:32:08;34.20;;;20.73;;
55710;SDS011;41612;51.994;5.880;2023-02-13T04:34:35;39.47;;;22.17;;
55710;SDS011;41612;51.994;5.880;2023-02-13T04:37:01;44.60;;;23.42;;
55710;SDS011;41612;51.994;5.880;2023-02-13T04:39:29;43.13;;;24.48;;
55710;SDS011;41612;51.994;5.880;2023-02-13T04:41:55;44.70;;;23.20;;
55710;SDS011;41612;51.994;5.880;2023-02-13T04:44:21;37.13;;;20.80;;
55710;SDS011;41612;51.994;5.880;2023-02-13T04:46:47;39.45;;;22.95;;
55710;SDS011;41612;51.994;5.880;2023-02-13T04:49:13;38.30;;;20.80;;
55710;SDS011;41612;51.994;5.880;2023-02-13T04:51:39;29.00;;;16.83;;
55710;SDS011;41612;51.994;5.880;2023-02-13T04:54:04;27.05;;;16.13;;
55710;SDS011;41612;51.994;5.880;2023-02-13T04:56:30;21.83;;;13.23;;
55710;SDS011;41612;51.994;5.880;2023-02-13T04:58:56;40.42;;;22.63;;
55710;SDS011;41612;51.994;5.880;2023-02-13T05:01:22;42.20;;;25.05;;
55710;SDS011;41612;51.994;5.880;2023-02-13T05:03:48;42.75;;;23.65;;
55710;SDS011;41612;51.994;5.880;2023-02-13T05:06:13;40.95;;;23.02;;
55710;SDS011;41612;51.994;5.880;2023-02-13T05:08:39;42.88;;;23.27;;
55710;SDS011;41612;51.994;5.880;2023-02-13T05:11:05;43.53;;;24.08;;
55710;SDS011;41612;51.994;5.880;2023-02-13T05:13:31;36.20;;;21.80;;
55710;SDS011;41612;51.994;5.880;2023-02-13T05:15:59;34.47;;;21.20;;
55710;SDS011;41612;51.994;5.880;2023-02-13T05:18:25;39.67;;;20.70;;
55710;SDS011;41612;51.994;5.880;2023-02-13T05:20:51;46.22;;;24.90;;
55710;SDS011;41612;51.994;5.880;2023-02-13T05:23:35;45.88;;;24.83;;
55710;SDS011;41612;51.994;5.880;2023-02-13T05:26:01;40.10;;;23.20;;
55710;SDS011;41612;51.994;5.880;2023-02-13T05:28:27;42.75;;;24.48;;
55710;SDS011;41612;51.994;5.880;2023-02-13T05:47:16;40.80;;;22.20;;
55710;SDS011;41612;51.994;5.880;2023-02-13T05:49:41;36.80;;;21.77;;
55710;SDS011;41612;51.994;5.880;2023-02-13T05:52:08;41.55;;;24.15;;
55710;SDS011;41612;51.994;5.880;2023-02-13T05:54:35;41.83;;;22.55;;
55710;SDS011;41612;51.994;5.880;2023-02-13T05:57:02;41.22;;;21.45;;
55710;SDS011;41612;51.994;5.880;2023-02-13T05:59:28;42.20;;;24.02;;
55710;SDS011;41612;51.994;5.880;2023-02-13T06:01:54;38.78;;;23.08;;
55710;SDS011;41612;51.994;5.880;2023-02-13T06:04:20;44.28;;;25.00;;
55710;SDS011;41612;51.994;5.880;2023-02-13T06:06:45;40.30;;;23.75;;
55710;SDS011;41612;51.994;5.880;2023-02-13T06:09:11;48.28;;;25.52;;
55710;SDS011;41612;51.994;5.880;2023-02-13T06:11:37;43.58;;;25.58;;
55710;SDS011;41612;51.994;5.880;2023-02-13T06:14:03;32.13;;;19.98;;
55710;SDS011;41612;51.994;5.880;2023-02-13T06:16:28;41.70;;;22.65;;
55710;SDS011;41612;51.994;5.880;2023-02-13T06:18:55;44.35;;;24.60;;
55710;SDS011;41612;51.994;5.880;2023-02-13T06:21:24;35.85;;;20.65;;
55710;SDS011;41612;51.994;5.880;2023-02-13T06:23:49;40.72;;;22.60;;
55710;SDS011;41612;51.994;5.880;2023-02-13T06:26:15;39.08;;;19.38;;
55710;SDS011;41612;51.994;5.880;2023-02-13T06:28:41;42.50;;;24.08;;
55710;SDS011;41612;51.994;5.880;2023-02-13T06:31:07;35.80;;;21.48;;
55710;SDS011;41612;51.994;5.880;2023-02-13T06:33:33;47.40;;;26.02;;
55710;SDS011;41612;51.994;5.880;2023-02-13T06:35:58;40.67;;;23.75;;
55710;SDS011;41612;51.994;5.880;2023-02-13T06:38:24;40.75;;;23.55;;
55710;SDS011;41612;51.994;5.880;2023-02-13T06:40:50;37.33;;;22.42;;
55710;SDS011;41612;51.994;5.880;2023-02-13T06:43:17;35.47;;;20.52;;
55710;SDS011;41612;51.994;5.880;2023-02-13T06:45:43;44.20;;;24.23;;
55710;SDS011;41612;51.994;5.880;2023-02-13T06:48:11;36.45;;;22.90;;
55710;SDS011;41612;51.994;5.880;2023-02-13T06:50:39;39.90;;;21.67;;
55710;SDS011;41612;51.994;5.880;2023-02-13T06:53:05;41.58;;;21.92;;
55710;SDS011;41612;51.994;5.880;2023-02-13T06:55:31;37.15;;;22.23;;
55710;SDS011;41612;51.994;5.880;2023-02-13T06:57:57;39.03;;;23.13;;
55710;SDS011;41612;51.994;5.880;2023-02-13T07:00:23;32.67;;;20.83;;
55710;SDS011;41612;51.994;5.880;2023-02-13T07:02:49;36.75;;;22.20;;
55710;SDS011;41612;51.994;5.880;2023-02-13T07:05:14;39.08;;;22.52;;
55710;SDS011;41612;51.994;5.880;2023-02-13T11:24:51;27.50;;;17.50;;
55710;SDS011;41612;51.994;5.880;2023-02-13T11:27:26;24.88;;;17.38;;
55710;SDS011;41612;51.994;5.880;2023-02-13T11:29:58;23.08;;;16.15;;
55710;SDS011;41612;51.994;5.880;2023-02-13T11:32:28;22.15;;;15.98;;
55710;SDS011;41612;51.994;5.880;2023-02-13T11:34:56;24.42;;;16.08;;
55710;SDS011;41612;51.994;5.880;2023-02-13T11:37:33;24.00;;;16.25;;
55710;SDS011;41612;51.994;5.880;2023-02-13T11:40:04;22.70;;;15.43;;
55710;SDS011;41612;51.994;5.880;2023-02-13T11:42:53;24.02;;;16.65;;
55710;SDS011;41612;51.994;5.880;2023-02-13T11:45:20;21.88;;;15.05;;
55710;SDS011;41612;51.994;5.880;2023-02-13T11:47:48;20.02;;;15.25;;
55710;SDS011;41612;51.994;5.880;2023-02-13T11:50:21;22.90;;;15.90;;
55710;SDS011;41612;51.994;5.880;2023-02-13T11:52:56;20.15;;;14.43;;
55710;SDS011;41612;51.994;5.880;2023-02-13T11:57:57;20.05;;;14.32;;
55710;SDS011;41612;51.994;5.880;2023-02-13T12:02:50;20.08;;;14.43;;
55710;SDS011;41612;51.994;5.880;2023-02-13T12:07:46;17.40;;;12.48;;
55710;SDS011;41612;51.994;5.880;2023-02-13T12:10:29;18.00;;;14.13;;
55710;SDS011;41612;51.994;5.880;2023-02-13T12:13:13;17.92;;;13.68;;
55710;SDS011;41612;51.994;5.880;2023-02-13T12:15:48;19.58;;;14.13;;
55710;SDS011;41612;51.994;5.880;2023-02-13T12:26:28;17.08;;;12.52;;
55710;SDS011;41612;51.994;5.880;2023-02-13T12:32:34;15.43;;;11.95;;
55710;SDS011;41612;51.994;5.880;2023-02-13T12:43:57;16.00;;;12.18;;
55710;SDS011;41612;51.994;5.880;2023-02-13T12:49:28;14.85;;;12.20;;
55710;SDS011;41612;51.994;5.880;2023-02-13T13:00:43;17.10;;;11.75;;
55710;SDS011;41612;51.994;5.880;2023-02-13T13:03:27;16.60;;;11.82;;
55710;SDS011;41612;51.994;5.880;2023-02-13T13:15:39;17.13;;;11.50;;
55710;SDS011;41612;51.994;5.880;2023-02-13T13:24:52;16.33;;;13.88;;
55710;SDS011;41612;51.994;5.880;2023-02-13T13:27:47;17.38;;;13.60;;
55710;SDS011;41612;51.994;5.880;2023-02-13T13:30:34;16.83;;;14.65;;
55710;SDS011;41612;51.994;5.880;2023-02-13T13:33:22;15.40;;;11.77;;
55710;SDS011;41612;51.994;5.880;2023-02-13T13:38:52;14.23;;;12.07;;
55710;SDS011;41612;51.994;5.880;2023-02-13T14:07:36;16.70;;;12.27;;
55710;SDS011;41612;51.994;5.880;2023-02-13T14:16:11;13.57;;;10.68;;
55710;SDS011;41612;51.994;5.880;2023-02-13T14:25:18;16.55;;;14.73;;
55710;SDS011;41612;51.994;5.880;2023-02-13T14:28:14;15.75;;;13.98;;
55710;SDS011;41612;51.994;5.880;2023-02-13T14:31:03;16.55;;;13.90;;
55710;SDS011;41612;51.994;5.880;2023-02-13T14:33:52;13.82;;;12.30;;
55710;SDS011;41612;51.994;5.880;2023-02-13T14:36:44;13.98;;;11.38;;
55710;SDS011;41612;51.994;5.880;2023-02-13T14:39:32;14.52;;;11.20;;
55710;SDS011;41612;51.994;5.880;2023-02-13T14:42:23;13.43;;;11.98;;
55710;SDS011;41612;51.994;5.880;2023-02-13T14:44:53;15.85;;;13.77;;
55710;SDS011;41612;51.994;5.880;2023-02-13T14:47:42;16.33;;;13.45;;
55710;SDS011;41612;51.994;5.880;2023-02-13T14:50:28;16.52;;;14.27;;
55710;SDS011;41612;51.994;5.880;2023-02-13T14:53:29;15.85;;;12.95;;
55710;SDS011;41612;51.994;5.880;2023-02-13T14:56:19;17.65;;;12.98;;
55710;SDS011;41612;51.994;5.880;2023-02-13T14:58:54;14.45;;;12.40;;
55710;SDS011;41612;51.994;5.880;2023-02-13T15:01:36;15.18;;;11.38;;
55710;SDS011;41612;51.994;5.880;2023-02-13T15:07:55;17.23;;;12.77;;
55710;SDS011;41612;51.994;5.880;2023-02-13T15:11:01;8.82;;;7.22;;
55710;SDS011;41612;51.994;5.880;2023-02-13T15:13:34;13.80;;;11.50;;
55710;SDS011;41612;51.994;5.880;2023-02-13T15:16:18;12.55;;;10.93;;
55710;SDS011;41612;51.994;5.880;2023-02-13T15:18:47;15.20;;;12.05;;
55710;SDS011;41612;51.994;5.880;2023-02-13T15:21:22;15.07;;;13.27;;
55710;SDS011;41612;51.994;5.880;2023-02-13T15:23:57;14.75;;;12.60;;
55710;SDS011;41612;51.994;5.880;2023-02-13T15:26:24;14.48;;;12.45;;
55710;SDS011;41612;51.994;5.880;2023-02-13T15:29:03;14.82;;;13.18;;
55710;SDS011;41612;51.994;5.880;2023-02-13T15:31:40;16.65;;;14.50;;
55710;SDS011;41612;51.994;5.880;2023-02-13T15:36:55;18.70;;;14.95;;
55710;SDS011;41612;51.994;5.880;2023-02-13T15:39:30;17.98;;;15.52;;
55710;SDS011;41612;51.994;5.880;2023-02-13T15:44:33;19.35;;;14.30;;
55710;SDS011;41612;51.994;5.880;2023-02-13T15:47:08;20.95;;;15.15;;
55710;SDS011;41612;51.994;5.880;2023-02-13T15:49:42;18.48;;;15.10;;
55710;SDS011;41612;51.994;5.880;2023-02-13T15:52:17;19.30;;;15.88;;
55710;SDS011;41612;51.994;5.880;2023-02-13T15:54:51;19.48;;;15.13;;
55710;SDS011;41612;51.994;5.880;2023-02-13T15:57:18;21.10;;;15.25;;
55710;SDS011;41612;51.994;5.880;2023-02-13T15:59:46;22.15;;;17.58;;
55710;SDS011;41612;51.994;5.880;2023-02-13T16:02:17;21.73;;;17.55;;
55710;SDS011;41612;51.994;5.880;2023-02-13T16:04:45;19.75;;;16.85;;
55710;SDS011;41612;51.994;5.880;2023-02-13T16:07:13;26.80;;;17.90;;
55710;SDS011;41612;51.994;5.880;2023-02-13T16:09:39;20.33;;;17.23;;
55710;SDS011;41612;51.994;5.880;2023-02-13T16:12:22;28.33;;;18.58;;
55710;SDS011;41612;51.994;5.880;2023-02-13T16:14:50;27.85;;;18.92;;
55710;SDS011;41612;51.994;5.880;2023-02-13T16:24:51;24.92;;;19.20;;
55710;SDS011;41612;51.994;5.880;2023-02-13T16:27:26;24.67;;;18.73;;
55710;SDS011;41612;51.994;5.880;2023-02-13T16:29:56;25.90;;;19.35;;
55710;SDS011;41612;51.994;5.880;2023-02-13T16:32:28;26.67;;;20.15;;
55710;SDS011;41612;51.994;5.880;2023-02-13T16:35:15;22.67;;;18.05;;
55710;SDS011;41612;51.994;5.880;2023-02-13T20:56:27;36.60;;;23.38;;
55710;SDS011;41612;51.994;5.880;2023-02-13T20:59:10;35.90;;;22.13;;
55710;SDS011;41612;51.994;5.880;2023-02-13T21:01:39;33.97;;;22.52;;
55710;SDS011;41612;51.994;5.880;2023-02-13T21:04:09;37.08;;;22.55;;
